createdAt,value
2022-09-10T00:01:41.537Z,14.35
2022-09-10T00:04:15.209Z,15.10
2022-09-10T00:06:47.226Z,17.35
2022-09-10T00:09:15.698Z,15.80
2022-09-10T00:11:46.729Z,15.77
2022-09-10T00:14:21.323Z,16.60
2022-09-10T00:16:50.482Z,17.00
2022-09-10T00:19:19.661Z,17.42
2022-09-10T00:21:52.732Z,16.63
2022-09-10T00:24:22.635Z,17.13
2022-09-10T00:26:56.081Z,15.95
2022-09-10T00:29:28.919Z,15.02
2022-09-10T00:31:58.127Z,17.42
2022-09-10T00:34:26.096Z,17.33
2022-09-10T00:36:54.870Z,17.40
2022-09-10T00:39:26.230Z,18.02
2022-09-10T00:41:55.430Z,20.13
2022-09-10T00:44:42.540Z,18.27
2022-09-10T00:47:35.197Z,17.95
2022-09-10T00:50:24.887Z,18.73
2022-09-10T00:53:03.843Z,19.20
2022-09-10T00:55:35.868Z,21.23
2022-09-10T00:58:10.459Z,20.38
2022-09-10T01:00:42.503Z,19.67
2022-09-10T01:03:12.920Z,19.60
2022-09-10T01:05:45.119Z,20.00
2022-09-10T01:08:18.187Z,19.58
2022-09-10T01:11:17.074Z,18.23
2022-09-10T01:14:10.638Z,18.65
2022-09-10T01:16:58.354Z,17.45
2022-09-10T01:19:47.852Z,17.45
2022-09-10T01:22:53.388Z,16.90
2022-09-10T01:25:40.206Z,18.00
2022-09-10T01:28:18.127Z,17.00
2022-09-10T01:30:52.581Z,17.90
2022-09-10T01:33:29.448Z,17.67
2022-09-10T01:36:02.006Z,17.58
2022-09-10T01:38:35.647Z,16.77
2022-09-10T01:41:06.934Z,16.20
2022-09-10T01:43:42.290Z,16.60
2022-09-10T01:46:39.393Z,16.00
2022-09-10T01:49:45.004Z,15.75
2022-09-10T01:52:53.441Z,16.00
2022-09-10T01:55:50.300Z,16.15
2022-09-10T01:58:34.760Z,15.75
2022-09-10T02:01:14.013Z,15.30
2022-09-10T02:03:48.615Z,16.08
2022-09-10T02:06:21.164Z,16.70
2022-09-10T02:08:56.575Z,17.33
2022-09-10T02:11:30.592Z,14.73
2022-09-10T02:14:05.499Z,15.77
2022-09-10T02:16:55.255Z,15.02
2022-09-10T02:19:23.879Z,14.77
2022-09-10T02:21:57.374Z,15.90
2022-09-10T02:24:26.352Z,15.65
2022-09-10T02:26:54.765Z,18.42
2022-09-10T02:29:27.324Z,19.05
2022-09-10T02:31:55.614Z,15.10
2022-09-10T02:34:26.692Z,16.48
2022-09-10T02:36:57.614Z,15.60
2022-09-10T02:39:26.039Z,17.65
2022-09-10T02:42:03.266Z,14.48
2022-09-10T02:44:38.421Z,16.42
2022-09-10T02:47:07.634Z,16.50
2022-09-10T02:49:40.163Z,16.10
2022-09-10T02:52:12.594Z,17.27
2022-09-10T02:54:40.811Z,17.80
2022-09-10T02:57:09.302Z,18.17
2022-09-10T02:59:38.394Z,20.15
2022-09-10T03:02:09.826Z,19.30
2022-09-10T03:04:39.535Z,17.83
2022-09-10T03:07:08.204Z,19.52
2022-09-10T03:09:35.940Z,19.48
2022-09-10T03:12:10.384Z,21.02
2022-09-10T03:14:40.469Z,21.63
2022-09-10T03:17:09.593Z,21.75
2022-09-10T03:19:37.544Z,21.02
2022-09-10T03:22:11.939Z,21.38
2022-09-10T03:24:39.980Z,21.90
2022-09-10T03:27:10.521Z,21.17
2022-09-10T03:32:05.887Z,22.55
2022-09-10T03:34:37.596Z,22.42
2022-09-10T03:37:13.681Z,21.50
2022-09-10T03:39:46.673Z,19.42
2022-09-10T03:42:16.783Z,18.67
2022-09-10T03:44:51.238Z,21.70
2022-09-10T03:47:19.500Z,19.58
2022-09-10T03:49:50.858Z,21.00
2022-09-10T03:52:24.007Z,19.52
2022-09-10T03:54:52.301Z,19.80
2022-09-10T03:57:22.401Z,17.45
2022-09-10T03:59:56.751Z,19.63
2022-09-10T04:02:29.464Z,20.67
2022-09-10T04:05:07.111Z,20.20
2022-09-10T04:07:44.227Z,19.38
2022-09-10T04:10:14.020Z,19.83
2022-09-10T04:12:42.636Z,20.20
2022-09-10T04:15:10.517Z,20.73
2022-09-10T04:17:38.756Z,20.83
2022-09-10T04:20:09.179Z,23.38
2022-09-10T04:22:38.806Z,20.00
2022-09-10T04:25:07.161Z,20.80
2022-09-10T04:27:35.873Z,22.02
2022-09-10T04:30:08.874Z,21.20
2022-09-10T04:32:37.056Z,20.33
2022-09-10T04:35:07.604Z,20.20
2022-09-10T04:37:40.219Z,22.08
2022-09-10T04:40:11.199Z,20.73
2022-09-10T04:42:40.768Z,20.55
2022-09-10T04:45:10.939Z,20.75
2022-09-10T04:47:39.055Z,19.45
2022-09-10T04:50:09.292Z,19.88
2022-09-10T04:52:39.936Z,18.67
2022-09-10T04:55:12.315Z,19.15
2022-09-10T04:57:40.068Z,20.20
2022-09-10T05:00:10.404Z,19.98
2022-09-10T05:02:39.737Z,18.75
2022-09-10T05:05:11.438Z,20.92
2022-09-10T05:07:41.990Z,19.85
2022-09-10T05:10:13.826Z,19.67
2022-09-10T05:12:41.939Z,19.98
2022-09-10T05:15:14.236Z,20.55
2022-09-10T05:17:41.978Z,19.10
2022-09-10T05:20:18.801Z,19.90
2022-09-10T05:22:51.592Z,19.75
2022-09-10T05:25:19.925Z,20.52
2022-09-10T05:27:49.456Z,20.88
2022-09-10T05:30:25.253Z,20.27
2022-09-10T05:32:57.848Z,20.83
2022-09-10T05:35:29.521Z,18.15
2022-09-10T05:37:58.319Z,18.88
2022-09-10T05:40:29.360Z,20.80
2022-09-10T05:42:58.296Z,18.95
2022-09-10T05:45:30.581Z,19.63
2022-09-10T05:47:59.865Z,20.02
2022-09-10T05:50:31.842Z,19.23
2022-09-10T05:53:02.917Z,19.65
2022-09-10T05:55:33.376Z,19.38
2022-09-10T05:58:02.922Z,19.50
2022-09-10T06:00:31.506Z,18.80
2022-09-10T06:03:02.905Z,18.38
2022-09-10T06:06:02.951Z,19.45
2022-09-10T06:08:40.826Z,17.75
2022-09-10T06:11:22.503Z,19.25
2022-09-10T06:13:50.759Z,18.23
2022-09-10T06:16:20.199Z,20.00
2022-09-10T06:18:48.205Z,19.73
2022-09-10T06:21:28.118Z,18.30
2022-09-10T06:24:00.646Z,20.08
2022-09-10T06:26:35.166Z,19.88
2022-09-10T06:29:07.079Z,20.83
2022-09-10T06:31:35.563Z,20.02
2022-09-10T06:34:04.729Z,19.45
2022-09-10T06:36:34.459Z,19.77
2022-09-10T06:39:03.859Z,19.58
2022-09-10T06:41:47.893Z,22.08
2022-09-10T06:44:39.892Z,19.17
2022-09-10T06:50:51.646Z,17.95
2022-09-10T06:53:22.438Z,19.40
2022-09-10T06:55:52.989Z,17.70
2022-09-10T06:58:23.586Z,19.58
2022-09-10T07:00:52.948Z,18.67
2022-09-10T07:03:22.919Z,19.55
2022-09-10T07:05:55.028Z,18.10
2022-09-10T07:08:25.758Z,16.90
2022-09-10T07:11:01.561Z,16.92
2022-09-10T07:13:32.149Z,16.83
2022-09-10T07:16:08.748Z,18.42
2022-09-10T07:18:40.927Z,16.02
2022-09-10T07:21:14.605Z,18.15
2022-09-10T07:23:48.630Z,16.35
2022-09-10T07:26:20.722Z,16.30
2022-09-10T07:28:52.264Z,17.55
2022-09-10T07:31:28.165Z,17.48
2022-09-10T07:33:57.815Z,18.02
2022-09-10T07:36:26.029Z,17.40
2022-09-10T07:38:55.125Z,18.95
2022-09-10T07:41:29.554Z,18.80
2022-09-10T07:44:00.389Z,18.45
2022-09-10T07:46:35.138Z,18.83
2022-09-10T07:49:09.247Z,19.05
2022-09-10T07:51:38.540Z,19.08
2022-09-10T07:54:07.294Z,18.65
2022-09-10T07:56:45.327Z,19.58
2022-09-10T07:59:24.422Z,18.13
2022-09-10T08:02:00.357Z,18.20
2022-09-10T08:04:36.790Z,19.58
2022-09-10T08:07:07.980Z,18.17
2022-09-10T08:12:27.584Z,18.75
2022-09-10T08:14:56.950Z,18.65
2022-09-10T08:17:28.736Z,17.55
2022-09-10T08:19:57.999Z,17.40
2022-09-10T08:22:28.680Z,16.25
2022-09-10T08:24:59.011Z,17.40
2022-09-10T08:27:34.057Z,16.42
2022-09-10T08:30:04.550Z,16.05
2022-09-10T08:32:35.158Z,13.90
2022-09-10T08:35:05.115Z,14.82
2022-09-10T08:37:34.279Z,15.30
2022-09-10T08:40:07.234Z,14.65
2022-09-10T08:42:45.584Z,14.50
2022-09-10T08:45:19.391Z,14.82
2022-09-10T08:48:02.484Z,14.65
2022-09-10T08:50:44.746Z,14.55
2022-09-10T08:53:29.203Z,14.60
2022-09-10T08:56:17.927Z,13.98
2022-09-10T08:59:29.684Z,14.80
2022-09-10T09:02:07.356Z,14.73
2022-09-10T09:05:19.018Z,14.57
2022-09-10T09:07:52.070Z,14.27
2022-09-10T09:10:22.783Z,15.07
2022-09-10T09:12:51.102Z,14.45
2022-09-10T09:15:27.093Z,13.02
2022-09-10T09:18:33.147Z,12.82
2022-09-10T09:21:12.768Z,11.73
2022-09-10T09:24:12.119Z,12.48
2022-09-10T09:26:46.231Z,12.85
2022-09-10T09:29:38.729Z,11.38
2022-09-10T09:32:07.076Z,13.10
2022-09-10T09:34:50.540Z,13.90
2022-09-10T09:37:25.233Z,13.90
2022-09-10T09:40:40.349Z,15.93
2022-09-10T09:43:49.987Z,14.32
2022-09-10T09:46:24.259Z,15.68
2022-09-10T09:49:03.965Z,12.52
2022-09-10T09:51:35.991Z,12.77
2022-09-10T09:57:00.180Z,11.40
2022-09-10T09:59:30.185Z,11.77
2022-09-10T10:02:10.621Z,11.13
2022-09-10T10:04:42.387Z,10.60
2022-09-10T10:07:12.048Z,10.18
2022-09-10T10:09:44.069Z,10.30
2022-09-10T10:12:22.544Z,9.65
2022-09-10T10:14:51.483Z,9.60
2022-09-10T10:17:25.206Z,9.18
2022-09-10T10:20:10.705Z,9.23
2022-09-10T10:22:43.465Z,8.77
2022-09-10T10:25:35.031Z,8.50
2022-09-10T10:28:03.083Z,7.43
2022-09-10T10:30:33.928Z,7.80
2022-09-10T10:33:03.685Z,8.45
2022-09-10T10:36:00.587Z,7.93
2022-09-10T10:38:30.197Z,9.02
2022-09-10T10:41:25.817Z,8.18
2022-09-10T10:44:14.789Z,7.75
2022-09-10T10:47:26.799Z,6.78
2022-09-10T10:50:12.401Z,5.38
2022-09-10T10:53:02.860Z,5.00
2022-09-10T10:55:44.074Z,5.57
2022-09-10T10:59:00.684Z,4.35
2022-09-10T11:01:32.108Z,4.05
2022-09-10T11:04:23.136Z,4.40
2022-09-10T11:07:08.457Z,3.28
2022-09-10T11:09:41.266Z,3.75
2022-09-10T11:12:38.898Z,4.20
2022-09-10T11:15:23.992Z,3.55
2022-09-10T11:18:01.468Z,4.20
2022-09-10T11:20:37.455Z,3.03
2022-09-10T11:23:32.157Z,4.03
2022-09-10T11:26:25.069Z,4.10
2022-09-10T11:29:11.691Z,3.25
2022-09-10T11:31:44.814Z,4.28
2022-09-10T11:34:47.770Z,3.50
2022-09-10T11:38:01.104Z,5.03
2022-09-10T11:40:47.488Z,3.33
2022-09-10T11:43:35.044Z,3.60
2022-09-10T11:46:11.950Z,3.72
2022-09-10T11:49:04.443Z,3.88
2022-09-10T11:51:37.106Z,3.97
2022-09-10T11:54:16.945Z,4.10
2022-09-10T11:56:49.670Z,3.13
2022-09-10T11:59:51.055Z,3.58
2022-09-10T12:02:38.925Z,3.00
2022-09-10T12:05:28.178Z,3.85
2022-09-10T12:08:40.449Z,3.03
2022-09-10T12:11:32.447Z,3.50
2022-09-10T12:14:05.230Z,4.00
2022-09-10T12:17:10.224Z,4.50
2022-09-10T12:19:46.587Z,3.97
2022-09-10T12:22:43.065Z,4.28
2022-09-10T12:25:18.545Z,4.75
2022-09-10T12:27:50.578Z,4.38
2022-09-10T12:30:31.312Z,3.75
2022-09-10T12:33:22.659Z,3.55
2022-09-10T12:35:51.650Z,3.40
2022-09-10T12:38:59.110Z,3.20
2022-09-10T12:41:36.244Z,4.13
2022-09-10T12:44:33.177Z,3.60
2022-09-10T12:47:16.057Z,3.05
2022-09-10T12:49:52.279Z,2.72
2022-09-10T12:52:53.725Z,3.05
2022-09-10T12:56:00.386Z,2.70
2022-09-10T12:58:55.700Z,2.72
2022-09-10T13:01:32.341Z,2.42
2022-09-10T13:04:03.441Z,2.40
2022-09-10T13:06:38.338Z,2.85
2022-09-10T13:09:25.786Z,3.38
2022-09-10T13:11:57.063Z,3.65
2022-09-10T13:14:57.817Z,2.95
2022-09-10T13:17:39.820Z,3.28
2022-09-10T13:20:31.751Z,3.08
2022-09-10T13:23:09.964Z,3.72
2022-09-10T13:25:45.963Z,12.40
2022-09-10T13:28:32.893Z,8.40
2022-09-10T13:31:14.102Z,4.22
2022-09-10T13:33:53.764Z,3.47
2022-09-10T13:36:42.592Z,3.58
2022-09-10T13:39:35.195Z,3.72
2022-09-10T13:42:31.283Z,3.20
2022-09-10T13:45:21.222Z,3.40
2022-09-10T13:48:03.036Z,6.32
2022-09-10T13:50:50.208Z,5.60
2022-09-10T13:53:19.789Z,3.30
2022-09-10T13:56:23.961Z,6.95
2022-09-10T13:59:15.041Z,39.30
2022-09-10T14:01:54.861Z,4.40
2022-09-10T14:04:33.462Z,6.95
2022-09-10T14:07:29.427Z,12.15
2022-09-10T14:10:01.809Z,11.30
2022-09-10T14:12:34.674Z,18.45
2022-09-10T14:15:09.169Z,7.28
2022-09-10T14:17:45.190Z,17.08
2022-09-10T14:20:28.646Z,10.40
2022-09-10T14:23:16.073Z,4.32
2022-09-10T14:25:45.768Z,3.67
2022-09-10T14:28:16.481Z,2.72
2022-09-10T14:30:45.598Z,2.95
2022-09-10T14:33:33.764Z,2.30
2022-09-10T14:36:34.474Z,10.63
2022-09-10T14:39:22.473Z,3.92
2022-09-10T14:42:33.868Z,10.70
2022-09-10T14:45:03.196Z,9.32
2022-09-10T14:47:40.124Z,24.55
2022-09-10T14:50:35.085Z,13.90
2022-09-10T14:53:03.282Z,13.98
2022-09-10T14:55:32.543Z,10.38
2022-09-10T14:58:08.431Z,17.65
2022-09-10T15:00:40.102Z,21.23
2022-09-10T15:03:16.355Z,4.13
2022-09-10T15:05:46.679Z,3.05
2022-09-10T15:08:17.624Z,7.00
2022-09-10T15:10:45.374Z,3.40
2022-09-10T15:13:19.020Z,2.97
2022-09-10T15:15:49.811Z,3.00
2022-09-10T15:18:19.165Z,3.30
2022-09-10T15:20:48.043Z,3.17
2022-09-10T15:23:18.271Z,3.00
2022-09-10T15:25:50.945Z,2.38
2022-09-10T15:28:21.436Z,3.15
2022-09-10T15:33:54.241Z,3.03
2022-09-10T15:36:22.727Z,3.45
2022-09-10T15:38:56.253Z,4.88
2022-09-10T15:41:24.417Z,3.92
2022-09-10T15:43:54.007Z,3.70
2022-09-10T15:46:24.777Z,26.00
2022-09-10T15:48:53.738Z,12.40
2022-09-10T15:51:23.961Z,5.55
2022-09-10T15:53:55.969Z,4.10
2022-09-10T15:56:26.623Z,3.10
2022-09-10T15:58:56.253Z,3.00
2022-09-10T16:01:27.130Z,2.97
2022-09-10T16:03:58.428Z,3.25
2022-09-10T16:06:34.639Z,3.70
2022-09-10T16:09:06.232Z,2.65
2022-09-10T16:11:36.270Z,3.53
2022-09-10T16:14:09.664Z,3.75
2022-09-10T16:16:37.920Z,3.05
2022-09-10T16:19:06.041Z,3.72
2022-09-10T16:21:36.641Z,3.83
2022-09-10T16:24:05.889Z,3.00
2022-09-10T16:26:38.364Z,3.25
2022-09-10T16:29:14.149Z,3.25
2022-09-10T16:31:45.502Z,4.05
2022-09-10T16:34:16.105Z,3.78
2022-09-10T16:36:44.209Z,3.35
2022-09-10T16:39:15.567Z,3.40
2022-09-10T16:41:48.741Z,3.85
2022-09-10T16:44:18.185Z,3.80
2022-09-10T16:46:47.194Z,4.00
2022-09-10T16:49:18.806Z,3.30
2022-09-10T16:51:51.544Z,4.65
2022-09-10T16:54:32.482Z,3.88
2022-09-10T16:57:02.398Z,4.57
2022-09-10T16:59:53.690Z,3.88
2022-09-10T17:02:29.095Z,4.47
2022-09-10T17:05:01.100Z,5.88
2022-09-10T17:07:29.266Z,4.95
2022-09-10T17:10:00.728Z,4.97
2022-09-10T17:12:31.574Z,4.82
2022-09-10T17:15:03.250Z,4.40
2022-09-10T17:17:30.919Z,4.68
2022-09-10T17:19:59.404Z,4.55
2022-09-10T17:22:27.950Z,4.07
2022-09-10T17:24:56.144Z,4.50
2022-09-10T17:27:25.682Z,4.75
2022-09-10T17:30:00.916Z,4.80
2022-09-10T17:32:29.157Z,5.10
2022-09-10T17:34:57.027Z,4.03
2022-09-10T17:37:24.803Z,4.00
2022-09-10T17:39:52.483Z,5.03
2022-09-10T17:42:20.128Z,4.80
2022-09-10T17:44:48.179Z,4.28
2022-09-10T17:47:15.774Z,3.90
2022-09-10T17:49:43.577Z,4.38
2022-09-10T17:52:11.248Z,4.32
2022-09-10T17:54:39.850Z,4.43
2022-09-10T17:57:07.511Z,5.38
2022-09-10T17:59:37.147Z,4.50
2022-09-10T18:02:19.633Z,5.38
2022-09-10T18:04:50.345Z,4.15
2022-09-10T18:07:18.341Z,4.20
2022-09-10T18:09:56.396Z,3.80
2022-09-10T18:12:24.255Z,4.43
2022-09-10T18:14:55.494Z,4.18
2022-09-10T18:17:25.299Z,4.05
2022-09-10T18:19:54.484Z,3.78
2022-09-10T18:22:22.197Z,3.80
2022-09-10T18:24:49.859Z,5.32
2022-09-10T18:27:17.669Z,4.18
2022-09-10T18:29:45.420Z,3.83
2022-09-10T18:32:16.389Z,4.45
2022-09-10T18:34:46.679Z,4.32
2022-09-10T18:37:14.333Z,3.63
2022-09-10T18:39:42.140Z,5.55
2022-09-10T18:42:09.877Z,7.45
2022-09-10T18:44:40.531Z,6.88
2022-09-10T18:47:28.058Z,6.95
2022-09-10T18:49:59.362Z,6.03
2022-09-10T18:52:27.777Z,6.85
2022-09-10T18:54:55.917Z,6.35
2022-09-10T18:57:27.606Z,6.53
2022-09-10T18:59:55.684Z,6.30
2022-09-10T19:02:24.091Z,6.30
2022-09-10T19:05:12.532Z,6.45
2022-09-10T19:07:50.775Z,6.15
2022-09-10T19:10:18.469Z,6.20
2022-09-10T19:12:46.091Z,6.30
2022-09-10T19:15:13.855Z,6.18
2022-09-10T19:17:44.649Z,6.03
2022-09-10T19:20:17.297Z,6.78
2022-09-10T19:22:53.688Z,6.22
2022-09-10T19:25:22.910Z,7.85
2022-09-10T19:27:53.828Z,7.20
2022-09-10T19:30:26.187Z,7.60
2022-09-10T19:32:57.932Z,7.32
2022-09-10T19:35:27.964Z,7.53
2022-09-10T19:37:55.650Z,7.28
2022-09-10T19:40:23.196Z,7.35
2022-09-10T19:42:51.228Z,7.20
2022-09-10T19:45:18.820Z,6.85
2022-09-10T19:47:48.681Z,6.50
2022-09-10T19:50:23.164Z,6.93
2022-09-10T19:52:53.709Z,6.72
2022-09-10T19:55:23.678Z,6.97
2022-09-10T19:57:51.308Z,7.45
2022-09-10T20:00:42.976Z,6.43
2022-09-10T20:03:07.923Z,6.70
2022-09-10T20:05:37.947Z,7.22
2022-09-10T20:08:09.787Z,7.63
2022-09-10T20:10:38.212Z,7.90
2022-09-10T20:13:08.088Z,7.30
2022-09-10T20:15:42.354Z,7.70
2022-09-10T20:18:13.498Z,7.43
2022-09-10T20:20:44.338Z,8.70
2022-09-10T20:23:12.026Z,8.13
2022-09-10T20:25:39.585Z,8.07
2022-09-10T20:28:10.730Z,8.00
2022-09-10T20:30:43.717Z,7.72
2022-09-10T20:33:11.528Z,8.55
2022-09-10T20:35:42.866Z,8.35
2022-09-10T20:38:11.595Z,8.70
2022-09-10T20:40:42.548Z,8.93
2022-09-10T20:43:13.657Z,8.80
2022-09-10T20:45:47.848Z,9.25
2022-09-10T20:48:18.046Z,9.20
2022-09-10T20:51:00.997Z,9.32
2022-09-10T20:53:28.627Z,8.98
2022-09-10T20:56:11.553Z,9.90
2022-09-10T20:58:40.241Z,11.27
2022-09-10T21:01:11.952Z,10.25
2022-09-10T21:03:41.099Z,10.32
2022-09-10T21:06:12.881Z,10.77
2022-09-10T21:08:44.112Z,10.35
2022-09-10T21:11:18.567Z,11.00
2022-09-10T21:13:49.786Z,9.57
2022-09-10T21:16:19.874Z,11.30
2022-09-10T21:18:54.291Z,11.75
2022-09-10T21:21:32.813Z,11.03
2022-09-10T21:24:06.626Z,11.40
2022-09-10T21:26:37.569Z,11.07
2022-09-10T21:29:07.694Z,12.25
2022-09-10T21:31:36.007Z,12.98
2022-09-10T21:34:05.483Z,12.73
2022-09-10T21:36:35.312Z,14.52
2022-09-10T21:39:14.393Z,11.93
2022-09-10T21:41:47.435Z,12.75
2022-09-10T21:44:17.739Z,11.85
2022-09-10T21:46:46.827Z,12.98
2022-09-10T21:49:18.590Z,13.18
2022-09-10T21:51:47.310Z,12.48
2022-09-10T21:54:18.679Z,12.10
2022-09-10T21:56:47.298Z,12.40
2022-09-10T21:59:16.196Z,12.77
2022-09-10T22:01:46.877Z,12.18
2022-09-10T22:04:22.436Z,12.25
2022-09-10T22:06:52.753Z,14.45
2022-09-10T22:09:24.979Z,14.80
2022-09-10T22:11:54.358Z,15.27
2022-09-10T22:14:27.259Z,13.38
2022-09-10T22:16:57.121Z,13.65
2022-09-10T22:19:27.173Z,16.13
2022-09-10T22:22:11.295Z,15.75
2022-09-10T22:24:41.478Z,16.52
2022-09-10T22:27:17.673Z,16.63
2022-09-10T22:29:48.174Z,15.63
2022-09-10T22:32:15.919Z,14.27
2022-09-10T22:34:43.931Z,15.77
2022-09-10T22:37:11.656Z,15.88
2022-09-10T22:39:43.918Z,14.70
2022-09-10T22:42:11.719Z,15.90
2022-09-10T22:44:41.979Z,15.65
2022-09-10T22:47:09.678Z,14.98
2022-09-10T22:49:40.987Z,14.90
2022-09-10T22:52:09.166Z,16.45
2022-09-10T22:54:36.976Z,14.23
2022-09-10T22:57:05.624Z,14.23
2022-09-10T22:59:37.784Z,15.45
2022-09-10T23:02:05.551Z,14.00
2022-09-10T23:04:33.323Z,15.88
2022-09-10T23:07:01.300Z,14.13
2022-09-10T23:09:29.574Z,14.40
2022-09-10T23:11:58.750Z,14.85
2022-09-10T23:14:28.866Z,13.25
2022-09-10T23:16:56.838Z,14.93
2022-09-10T23:19:25.671Z,14.93
2022-09-10T23:21:55.227Z,13.50
2022-09-10T23:24:24.930Z,13.57
2022-09-10T23:26:53.906Z,13.90
2022-09-10T23:29:23.239Z,13.88
2022-09-10T23:31:54.573Z,13.50
2022-09-10T23:34:25.144Z,13.05
2022-09-10T23:36:53.793Z,12.65
2022-09-10T23:39:23.933Z,14.95
2022-09-10T23:41:54.657Z,14.48
2022-09-10T23:44:23.004Z,13.90
2022-09-10T23:46:51.078Z,13.38
2022-09-10T23:49:26.576Z,14.38
2022-09-10T23:51:54.422Z,12.60
2022-09-10T23:54:22.783Z,12.38
2022-09-10T23:56:50.675Z,15.13
2022-09-10T23:59:22.027Z,11.93
